sensor_id;sensor_type;location;lat;lon;timestamp;temperature;humidity
1021;DHT22;499;42.648;23.270;2023-04-25T00:01:09;9.60;99.90
1021;DHT22;499;42.648;23.270;2023-04-25T00:03:39;9.60;99.90
1021;DHT22;499;42.648;23.270;2023-04-25T00:06:07;9.60;98.90
1021;DHT22;499;42.648;23.270;2023-04-25T00:08:34;9.60;98.60
1021;DHT22;499;42.648;23.270;2023-04-25T00:11:02;9.60;99.60
1021;DHT22;499;42.648;23.270;2023-04-25T00:13:29;9.50;99.90
1021;DHT22;499;42.648;23.270;2023-04-25T00:15:56;9.50;99.90
1021;DHT22;499;42.648;23.270;2023-04-25T00:18:23;9.50;99.90
1021;DHT22;499;42.648;23.270;2023-04-25T00:20:52;9.50;94.90
1021;DHT22;499;42.648;23.270;2023-04-25T00:23:19;9.60;91.30
1021;DHT22;499;42.648;23.270;2023-04-25T00:25:48;9.60;91.90
1021;DHT22;499;42.648;23.270;2023-04-25T00:28:16;9.60;92.80
1021;DHT22;499;42.648;23.270;2023-04-25T00:30:43;9.60;83.80
1021;DHT22;499;42.648;23.270;2023-04-25T00:33:10;9.70;89.60
1021;DHT22;499;42.648;23.270;2023-04-25T00:35:37;9.80;87.90
1021;DHT22;499;42.648;23.270;2023-04-25T00:38:06;10.00;89.00
1021;DHT22;499;42.648;23.270;2023-04-25T00:40:34;10.20;93.40
1021;DHT22;499;42.648;23.270;2023-04-25T00:43:02;10.10;92.70
1021;DHT22;499;42.648;23.270;2023-04-25T00:45:29;10.00;93.40
1021;DHT22;499;42.648;23.270;2023-04-25T00:47:57;10.00;98.00
1021;DHT22;499;42.648;23.270;2023-04-25T00:50:24;10.00;97.80
1021;DHT22;499;42.648;23.270;2023-04-25T00:52:52;10.00;97.80
1021;DHT22;499;42.648;23.270;2023-04-25T00:55:20;9.90;99.90
1021;DHT22;499;42.648;23.270;2023-04-25T00:57:48;9.70;99.90
1021;DHT22;499;42.648;23.270;2023-04-25T01:00:16;9.60;99.90
1021;DHT22;499;42.648;23.270;2023-04-25T01:02:44;9.60;99.90
1021;DHT22;499;42.648;23.270;2023-04-25T01:05:12;9.50;99.90
1021;DHT22;499;42.648;23.270;2023-04-25T01:07:39;9.60;99.90
1021;DHT22;499;42.648;23.270;2023-04-25T01:10:07;9.60;99.90
1021;DHT22;499;42.648;23.270;2023-04-25T01:12:36;9.60;99.90
1021;DHT22;499;42.648;23.270;2023-04-25T01:15:05;9.70;99.90
1021;DHT22;499;42.648;23.270;2023-04-25T01:17:34;9.70;99.90
1021;DHT22;499;42.648;23.270;2023-04-25T01:20:04;9.80;99.90
1021;DHT22;499;42.648;23.270;2023-04-25T01:22:34;9.70;99.90
1021;DHT22;499;42.648;23.270;2023-04-25T01:25:01;9.50;99.90
1021;DHT22;499;42.648;23.270;2023-04-25T01:27:29;9.60;99.90
1021;DHT22;499;42.648;23.270;2023-04-25T01:29:56;9.70;99.90
1021;DHT22;499;42.648;23.270;2023-04-25T01:32:24;9.50;99.90
1021;DHT22;499;42.648;23.270;2023-04-25T01:34:51;9.40;99.90
1021;DHT22;499;42.648;23.270;2023-04-25T01:37:19;9.30;99.90
1021;DHT22;499;42.648;23.270;2023-04-25T01:39:48;9.20;99.90
1021;DHT22;499;42.648;23.270;2023-04-25T01:42:16;9.10;99.90
1021;DHT22;499;42.648;23.270;2023-04-25T01:44:43;9.20;99.90
1021;DHT22;499;42.648;23.270;2023-04-25T01:47:10;9.40;99.90
1021;DHT22;499;42.648;23.270;2023-04-25T01:49:38;9.40;99.90
1021;DHT22;499;42.648;23.270;2023-04-25T01:52:07;9.30;99.90
1021;DHT22;499;42.648;23.270;2023-04-25T01:54:35;9.40;99.90
1021;DHT22;499;42.648;23.270;2023-04-25T01:57:03;9.30;99.90
1021;DHT22;499;42.648;23.270;2023-04-25T01:59:30;9.50;99.90
1021;DHT22;499;42.648;23.270;2023-04-25T02:01:57;9.60;99.90
1021;DHT22;499;42.648;23.270;2023-04-25T02:04:24;9.80;99.90
1021;DHT22;499;42.648;23.270;2023-04-25T02:06:51;9.60;99.90
1021;DHT22;499;42.648;23.270;2023-04-25T02:09:18;9.60;99.90
1021;DHT22;499;42.648;23.270;2023-04-25T02:11:45;9.50;99.90
1021;DHT22;499;42.648;23.270;2023-04-25T02:14:14;9.50;99.90
1021;DHT22;499;42.648;23.270;2023-04-25T02:16:41;9.60;99.90
1021;DHT22;499;42.648;23.270;2023-04-25T02:19:09;9.60;99.90
1021;DHT22;499;42.648;23.270;2023-04-25T02:21:36;9.60;99.90
1021;DHT22;499;42.648;23.270;2023-04-25T02:24:04;9.60;99.90
1021;DHT22;499;42.648;23.270;2023-04-25T02:26:31;9.50;99.90
1021;DHT22;499;42.648;23.270;2023-04-25T02:28:58;9.60;99.90
1021;DHT22;499;42.648;23.270;2023-04-25T02:31:26;9.60;99.90
1021;DHT22;499;42.648;23.270;2023-04-25T02:33:53;9.60;99.90
1021;DHT22;499;42.648;23.270;2023-04-25T02:36:20;9.50;99.90
1021;DHT22;499;42.648;23.270;2023-04-25T02:38:47;9.50;99.90
1021;DHT22;499;42.648;23.270;2023-04-25T02:41:14;9.50;99.90
1021;DHT22;499;42.648;23.270;2023-04-25T02:43:41;9.30;99.90
1021;DHT22;499;42.648;23.270;2023-04-25T02:46:08;9.20;99.90
1021;DHT22;499;42.648;23.270;2023-04-25T02:48:37;9.10;99.90
1021;DHT22;499;42.648;23.270;2023-04-25T02:51:05;9.00;99.90
1021;DHT22;499;42.648;23.270;2023-04-25T02:53:31;9.00;99.90
1021;DHT22;499;42.648;23.270;2023-04-25T02:55:58;9.00;99.90
1021;DHT22;499;42.648;23.270;2023-04-25T02:58:25;8.90;99.90
1021;DHT22;499;42.648;23.270;2023-04-25T03:00:52;8.90;99.90
1021;DHT22;499;42.648;23.270;2023-04-25T03:03:20;8.90;99.90
1021;DHT22;499;42.648;23.270;2023-04-25T03:05:49;8.80;99.90
1021;DHT22;499;42.648;23.270;2023-04-25T03:08:16;8.80;99.90
1021;DHT22;499;42.648;23.270;2023-04-25T03:10:43;8.80;99.90
1021;DHT22;499;42.648;23.270;2023-04-25T03:13:11;8.80;99.90
1021;DHT22;499;42.648;23.270;2023-04-25T03:15:38;8.80;99.90
1021;DHT22;499;42.648;23.270;2023-04-25T03:18:05;9.10;99.90
1021;DHT22;499;42.648;23.270;2023-04-25T03:20:32;9.20;99.90
1021;DHT22;499;42.648;23.270;2023-04-25T03:23:00;9.40;99.90
1021;DHT22;499;42.648;23.270;2023-04-25T03:25:27;9.40;99.90
1021;DHT22;499;42.648;23.270;2023-04-25T03:27:54;9.60;99.90
1021;DHT22;499;42.648;23.270;2023-04-25T03:30:21;9.60;99.90
1021;DHT22;499;42.648;23.270;2023-04-25T03:32:48;9.70;99.90
1021;DHT22;499;42.648;23.270;2023-04-25T03:35:15;9.70;98.90
1021;DHT22;499;42.648;23.270;2023-04-25T03:37:42;9.70;98.90
1021;DHT22;499;42.648;23.270;2023-04-25T03:40:12;9.70;94.20
1021;DHT22;499;42.648;23.270;2023-04-25T03:42:39;9.90;91.60
1021;DHT22;499;42.648;23.270;2023-04-25T03:45:07;10.10;80.30
1021;DHT22;499;42.648;23.270;2023-04-25T03:47:34;10.30;74.90
1021;DHT22;499;42.648;23.270;2023-04-25T03:50:01;10.40;73.40
1021;DHT22;499;42.648;23.270;2023-04-25T03:52:29;10.40;78.20
1021;DHT22;499;42.648;23.270;2023-04-25T03:54:56;10.40;76.40
1021;DHT22;499;42.648;23.270;2023-04-25T03:57:24;10.50;74.40
1021;DHT22;499;42.648;23.270;2023-04-25T03:59:51;10.60;69.40
1021;DHT22;499;42.648;23.270;2023-04-25T04:02:18;10.80;75.40
1021;DHT22;499;42.648;23.270;2023-04-25T04:04:45;10.90;64.20
1021;DHT22;499;42.648;23.270;2023-04-25T04:07:12;11.10;59.60
1021;DHT22;499;42.648;23.270;2023-04-25T04:09:40;10.90;78.20
1021;DHT22;499;42.648;23.270;2023-04-25T04:12:07;10.70;84.60
1021;DHT22;499;42.648;23.270;2023-04-25T04:14:36;10.60;91.90
1021;DHT22;499;42.648;23.270;2023-04-25T04:17:03;10.40;95.00
1021;DHT22;499;42.648;23.270;2023-04-25T04:19:31;10.30;78.90
1021;DHT22;499;42.648;23.270;2023-04-25T04:21:58;10.50;68.30
1021;DHT22;499;42.648;23.270;2023-04-25T04:24:25;10.70;81.10
1021;DHT22;499;42.648;23.270;2023-04-25T04:26:52;10.60;92.90
1021;DHT22;499;42.648;23.270;2023-04-25T04:29:19;10.30;97.10
1021;DHT22;499;42.648;23.270;2023-04-25T04:31:49;10.30;99.30
1021;DHT22;499;42.648;23.270;2023-04-25T04:34:16;10.20;99.70
1021;DHT22;499;42.648;23.270;2023-04-25T04:36:44;10.10;99.90
1021;DHT22;499;42.648;23.270;2023-04-25T04:39:11;10.20;99.90
1021;DHT22;499;42.648;23.270;2023-04-25T04:41:39;10.10;99.90
1021;DHT22;499;42.648;23.270;2023-04-25T04:44:06;10.00;96.20
1021;DHT22;499;42.648;23.270;2023-04-25T04:46:34;10.10;90.70
1021;DHT22;499;42.648;23.270;2023-04-25T04:49:07;10.10;80.20
1021;DHT22;499;42.648;23.270;2023-04-25T04:51:34;10.30;58.90
1021;DHT22;499;42.648;23.270;2023-04-25T04:54:02;10.50;60.20
1021;DHT22;499;42.648;23.270;2023-04-25T04:56:29;10.60;61.60
1021;DHT22;499;42.648;23.270;2023-04-25T04:58:57;10.80;47.60
1021;DHT22;499;42.648;23.270;2023-04-25T05:01:24;10.90;47.30
1021;DHT22;499;42.648;23.270;2023-04-25T05:03:51;11.10;44.20
1021;DHT22;499;42.648;23.270;2023-04-25T05:06:20;11.10;64.40
1021;DHT22;499;42.648;23.270;2023-04-25T05:08:47;11.10;75.70
1021;DHT22;499;42.648;23.270;2023-04-25T05:11:14;11.00;90.70
1021;DHT22;499;42.648;23.270;2023-04-25T05:13:41;10.70;93.00
1021;DHT22;499;42.648;23.270;2023-04-25T05:16:08;10.60;97.70
1021;DHT22;499;42.648;23.270;2023-04-25T05:18:35;10.50;99.30
1021;DHT22;499;42.648;23.270;2023-04-25T05:21:02;10.60;99.90
1021;DHT22;499;42.648;23.270;2023-04-25T05:23:31;10.70;99.90
1021;DHT22;499;42.648;23.270;2023-04-25T05:25:59;10.80;99.90
1021;DHT22;499;42.648;23.270;2023-04-25T05:28:26;10.70;99.90
1021;DHT22;499;42.648;23.270;2023-04-25T05:30:53;10.60;99.90
1021;DHT22;499;42.648;23.270;2023-04-25T05:33:20;10.50;99.90
1021;DHT22;499;42.648;23.270;2023-04-25T05:35:47;10.50;99.90
1021;DHT22;499;42.648;23.270;2023-04-25T05:38:15;10.40;99.90
1021;DHT22;499;42.648;23.270;2023-04-25T05:40:43;10.40;99.90
1021;DHT22;499;42.648;23.270;2023-04-25T05:43:10;10.40;99.90
1021;DHT22;499;42.648;23.270;2023-04-25T05:45:37;10.50;99.90
1021;DHT22;499;42.648;23.270;2023-04-25T05:48:05;10.50;99.90
1021;DHT22;499;42.648;23.270;2023-04-25T05:50:32;10.50;99.90
1021;DHT22;499;42.648;23.270;2023-04-25T05:52:59;10.80;99.90
1021;DHT22;499;42.648;23.270;2023-04-25T05:55:26;10.90;99.90
1021;DHT22;499;42.648;23.270;2023-04-25T05:57:54;11.00;97.30
1021;DHT22;499;42.648;23.270;2023-04-25T06:00:21;10.90;96.80
1021;DHT22;499;42.648;23.270;2023-04-25T06:02:49;11.00;96.30
1021;DHT22;499;42.648;23.270;2023-04-25T06:05:16;11.00;97.10
1021;DHT22;499;42.648;23.270;2023-04-25T06:07:43;11.10;95.50
1021;DHT22;499;42.648;23.270;2023-04-25T06:10:10;11.00;92.20
1021;DHT22;499;42.648;23.270;2023-04-25T06:12:37;11.00;93.10
1021;DHT22;499;42.648;23.270;2023-04-25T06:15:07;11.10;93.70
1021;DHT22;499;42.648;23.270;2023-04-25T06:17:34;11.00;95.10
1021;DHT22;499;42.648;23.270;2023-04-25T06:20:01;11.00;97.10
1021;DHT22;499;42.648;23.270;2023-04-25T06:22:29;10.80;97.00
1021;DHT22;499;42.648;23.270;2023-04-25T06:24:56;10.80;95.80
1021;DHT22;499;42.648;23.270;2023-04-25T06:27:24;10.80;98.20
1021;DHT22;499;42.648;23.270;2023-04-25T06:29:51;10.80;99.20
1021;DHT22;499;42.648;23.270;2023-04-25T06:32:20;10.80;98.90
1021;DHT22;499;42.648;23.270;2023-04-25T06:34:47;10.80;98.50
1021;DHT22;499;42.648;23.270;2023-04-25T06:37:14;10.90;99.00
1021;DHT22;499;42.648;23.270;2023-04-25T06:39:41;11.00;97.70
1021;DHT22;499;42.648;23.270;2023-04-25T06:42:08;11.20;98.80
1021;DHT22;499;42.648;23.270;2023-04-25T06:44:35;11.30;98.90
1021;DHT22;499;42.648;23.270;2023-04-25T06:47:02;11.50;95.90
1021;DHT22;499;42.648;23.270;2023-04-25T06:49:30;11.60;93.40
1021;DHT22;499;42.648;23.270;2023-04-25T06:51:57;11.70;92.50
1021;DHT22;499;42.648;23.270;2023-04-25T06:54:25;12.00;84.40
1021;DHT22;499;42.648;23.270;2023-04-25T06:56:52;12.10;79.80
1021;DHT22;499;42.648;23.270;2023-04-25T06:59:19;12.00;73.90
1021;DHT22;499;42.648;23.270;2023-04-25T07:01:46;12.20;78.30
1021;DHT22;499;42.648;23.270;2023-04-25T07:04:13;12.20;75.20
1021;DHT22;499;42.648;23.270;2023-04-25T07:06:42;12.20;75.20
1021;DHT22;499;42.648;23.270;2023-04-25T07:09:09;12.10;79.80
1021;DHT22;499;42.648;23.270;2023-04-25T07:11:37;12.20;75.20
1021;DHT22;499;42.648;23.270;2023-04-25T07:14:04;12.00;73.50
1021;DHT22;499;42.648;23.270;2023-04-25T07:16:31;12.00;72.40
1021;DHT22;499;42.648;23.270;2023-04-25T07:18:58;12.10;78.30
1021;DHT22;499;42.648;23.270;2023-04-25T07:21:25;12.10;75.10
1021;DHT22;499;42.648;23.270;2023-04-25T07:23:54;12.10;80.10
1021;DHT22;499;42.648;23.270;2023-04-25T07:26:21;12.20;78.20
1021;DHT22;499;42.648;23.270;2023-04-25T07:28:48;12.30;76.60
1021;DHT22;499;42.648;23.270;2023-04-25T07:31:17;12.40;73.00
1021;DHT22;499;42.648;23.270;2023-04-25T07:33:44;12.70;72.60
1021;DHT22;499;42.648;23.270;2023-04-25T07:36:11;12.80;69.90
1021;DHT22;499;42.648;23.270;2023-04-25T07:38:39;13.30;69.20
1021;DHT22;499;42.648;23.270;2023-04-25T07:41:07;13.50;62.60
1021;DHT22;499;42.648;23.270;2023-04-25T07:43:34;13.50;56.20
1021;DHT22;499;42.648;23.270;2023-04-25T07:46:01;13.60;61.80
1021;DHT22;499;42.648;23.270;2023-04-25T07:48:28;13.60;57.30
1021;DHT22;499;42.648;23.270;2023-04-25T07:50:55;13.50;52.70
1021;DHT22;499;42.648;23.270;2023-04-25T07:53:22;13.40;52.60
1021;DHT22;499;42.648;23.270;2023-04-25T07:55:50;13.60;57.30
1021;DHT22;499;42.648;23.270;2023-04-25T07:58:19;13.70;48.30
1021;DHT22;499;42.648;23.270;2023-04-25T08:00:47;13.70;46.10
1021;DHT22;499;42.648;23.270;2023-04-25T08:03:15;13.90;43.90
1021;DHT22;499;42.648;23.270;2023-04-25T08:05:42;14.20;44.10
1021;DHT22;499;42.648;23.270;2023-04-25T08:08:09;14.20;38.20
1021;DHT22;499;42.648;23.270;2023-04-25T08:10:36;14.40;30.10
1021;DHT22;499;42.648;23.270;2023-04-25T08:13:03;14.70;27.50
1021;DHT22;499;42.648;23.270;2023-04-25T08:15:32;15.00;25.70
1021;DHT22;499;42.648;23.270;2023-04-25T08:17:59;15.10;25.00
1021;DHT22;499;42.648;23.270;2023-04-25T08:20:26;15.00;25.10
1021;DHT22;499;42.648;23.270;2023-04-25T08:22:53;15.00;25.20
1021;DHT22;499;42.648;23.270;2023-04-25T08:25:20;15.20;24.40
1021;DHT22;499;42.648;23.270;2023-04-25T08:27:47;15.30;23.80
1021;DHT22;499;42.648;23.270;2023-04-25T08:30:14;15.50;24.90
1021;DHT22;499;42.648;23.270;2023-04-25T08:32:43;15.30;24.60
1021;DHT22;499;42.648;23.270;2023-04-25T08:35:10;15.10;25.50
1021;DHT22;499;42.648;23.270;2023-04-25T08:37:37;14.80;27.50
1021;DHT22;499;42.648;23.270;2023-04-25T08:40:05;14.70;33.70
1021;DHT22;499;42.648;23.270;2023-04-25T08:42:35;14.40;34.00
1021;DHT22;499;42.648;23.270;2023-04-25T08:45:04;14.30;36.80
1021;DHT22;499;42.648;23.270;2023-04-25T08:47:33;13.90;33.00
1021;DHT22;499;42.648;23.270;2023-04-25T08:50:04;14.10;35.20
1021;DHT22;499;42.648;23.270;2023-04-25T08:52:36;14.20;28.70
1021;DHT22;499;42.648;23.270;2023-04-25T08:55:05;14.40;31.90
1021;DHT22;499;42.648;23.270;2023-04-25T08:57:34;14.70;29.20
1021;DHT22;499;42.648;23.270;2023-04-25T09:00:02;15.00;27.00
1021;DHT22;499;42.648;23.270;2023-04-25T09:02:31;15.40;26.70
1021;DHT22;499;42.648;23.270;2023-04-25T09:04:58;15.70;25.20
1021;DHT22;499;42.648;23.270;2023-04-25T09:07:27;15.90;21.80
1021;DHT22;499;42.648;23.270;2023-04-25T09:09:54;16.20;23.50
1021;DHT22;499;42.648;23.270;2023-04-25T09:12:21;16.10;20.20
1021;DHT22;499;42.648;23.270;2023-04-25T09:15:03;16.30;20.20
1021;DHT22;499;42.648;23.270;2023-04-25T09:17:31;16.40;22.50
1021;DHT22;499;42.648;23.270;2023-04-25T09:20:06;16.20;21.10
1021;DHT22;499;42.648;23.270;2023-04-25T09:22:35;16.10;23.40
1021;DHT22;499;42.648;23.270;2023-04-25T09:25:04;16.30;22.00
1021;DHT22;499;42.648;23.270;2023-04-25T09:27:34;16.00;22.70
1021;DHT22;499;42.648;23.270;2023-04-25T09:30:01;16.10;22.40
1021;DHT22;499;42.648;23.270;2023-04-25T09:32:28;16.40;22.80
1021;DHT22;499;42.648;23.270;2023-04-25T09:34:57;16.60;21.50
1021;DHT22;499;42.648;23.270;2023-04-25T09:37:26;16.10;19.60
1021;DHT22;499;42.648;23.270;2023-04-25T09:39:56;15.90;21.70
1021;DHT22;499;42.648;23.270;2023-04-25T09:42:25;15.90;22.30
1021;DHT22;499;42.648;23.270;2023-04-25T09:44:55;16.30;22.90
1021;DHT22;499;42.648;23.270;2023-04-25T09:47:23;16.10;20.80
1021;DHT22;499;42.648;23.270;2023-04-25T09:49:51;16.30;22.50
1021;DHT22;499;42.648;23.270;2023-04-25T09:52:20;16.60;22.50
1021;DHT22;499;42.648;23.270;2023-04-25T09:54:48;16.60;20.00
1021;DHT22;499;42.648;23.270;2023-04-25T09:57:18;16.20;19.90
1021;DHT22;499;42.648;23.270;2023-04-25T09:59:47;16.20;20.70
1021;DHT22;499;42.648;23.270;2023-04-25T10:02:16;16.20;18.30
1021;DHT22;499;42.648;23.270;2023-04-25T10:04:47;16.00;17.50
1021;DHT22;499;42.648;23.270;2023-04-25T10:07:14;15.70;17.00
1021;DHT22;499;42.648;23.270;2023-04-25T10:09:41;15.90;18.30
1021;DHT22;499;42.648;23.270;2023-04-25T10:12:11;15.40;17.80
1021;DHT22;499;42.648;23.270;2023-04-25T10:14:40;15.00;21.50
1021;DHT22;499;42.648;23.270;2023-04-25T10:17:08;14.70;21.60
1021;DHT22;499;42.648;23.270;2023-04-25T10:19:37;14.70;23.10
1021;DHT22;499;42.648;23.270;2023-04-25T10:22:08;14.80;23.60
1021;DHT22;499;42.648;23.270;2023-04-25T10:24:39;15.10;24.40
1021;DHT22;499;42.648;23.270;2023-04-25T10:27:06;15.10;24.80
1021;DHT22;499;42.648;23.270;2023-04-25T10:29:35;15.60;21.60
1021;DHT22;499;42.648;23.270;2023-04-25T10:32:04;15.80;20.60
1021;DHT22;499;42.648;23.270;2023-04-25T10:34:41;16.00;16.60
1021;DHT22;499;42.648;23.270;2023-04-25T10:37:09;16.30;15.70
1021;DHT22;499;42.648;23.270;2023-04-25T10:39:39;16.60;15.90
1021;DHT22;499;42.648;23.270;2023-04-25T10:42:07;16.80;15.40
1021;DHT22;499;42.648;23.270;2023-04-25T10:44:35;17.00;15.50
1021;DHT22;499;42.648;23.270;2023-04-25T10:47:07;17.00;16.20
1021;DHT22;499;42.648;23.270;2023-04-25T10:49:36;16.60;15.90
1021;DHT22;499;42.648;23.270;2023-04-25T10:52:24;16.50;15.80
1021;DHT22;499;42.648;23.270;2023-04-25T10:54:53;16.60;16.20
1021;DHT22;499;42.648;23.270;2023-04-25T10:57:36;16.70;16.00
1021;DHT22;499;42.648;23.270;2023-04-25T11:00:12;16.70;16.00
1021;DHT22;499;42.648;23.270;2023-04-25T11:02:46;16.60;16.30
1021;DHT22;499;42.648;23.270;2023-04-25T11:05:22;16.60;16.70
1021;DHT22;499;42.648;23.270;2023-04-25T11:07:53;16.60;15.90
1021;DHT22;499;42.648;23.270;2023-04-25T11:10:25;16.90;16.10
1021;DHT22;499;42.648;23.270;2023-04-25T11:12:52;16.90;15.60
1021;DHT22;499;42.648;23.270;2023-04-25T11:15:19;17.20;16.30
1021;DHT22;499;42.648;23.270;2023-04-25T11:17:48;17.10;15.90
1021;DHT22;499;42.648;23.270;2023-04-25T11:20:17;17.40;16.40
1021;DHT22;499;42.648;23.270;2023-04-25T11:22:45;17.40;14.60
1021;DHT22;499;42.648;23.270;2023-04-25T11:25:14;17.20;13.70
1021;DHT22;499;42.648;23.270;2023-04-25T11:27:50;17.20;14.90
1021;DHT22;499;42.648;23.270;2023-04-25T11:30:18;17.10;14.40
1021;DHT22;499;42.648;23.270;2023-04-25T11:32:46;16.70;15.00
1021;DHT22;499;42.648;23.270;2023-04-25T11:35:14;16.40;17.60
1021;DHT22;499;42.648;23.270;2023-04-25T11:37:42;16.00;19.50
1021;DHT22;499;42.648;23.270;2023-04-25T11:40:09;15.50;19.80
1021;DHT22;499;42.648;23.270;2023-04-25T11:42:37;15.20;22.90
1021;DHT22;499;42.648;23.270;2023-04-25T11:45:06;14.70;24.90
1021;DHT22;499;42.648;23.270;2023-04-25T11:47:34;14.30;25.50
1021;DHT22;499;42.648;23.270;2023-04-25T11:50:01;14.00;28.30
1021;DHT22;499;42.648;23.270;2023-04-25T11:52:38;13.90;39.10
1021;DHT22;499;42.648;23.270;2023-04-25T11:55:07;13.70;40.90
1021;DHT22;499;42.648;23.270;2023-04-25T11:57:34;13.70;43.70
1021;DHT22;499;42.648;23.270;2023-04-25T12:00:11;13.70;49.50
1021;DHT22;499;42.648;23.270;2023-04-25T12:02:41;13.70;39.00
1021;DHT22;499;42.648;23.270;2023-04-25T12:05:09;14.10;48.70
1021;DHT22;499;42.648;23.270;2023-04-25T12:07:38;14.00;35.30
1021;DHT22;499;42.648;23.270;2023-04-25T12:10:07;14.20;37.60
1021;DHT22;499;42.648;23.270;2023-04-25T12:12:35;14.60;36.30
1021;DHT22;499;42.648;23.270;2023-04-25T12:15:13;14.70;30.20
1021;DHT22;499;42.648;23.270;2023-04-25T12:17:45;14.80;27.90
1021;DHT22;499;42.648;23.270;2023-04-25T12:20:13;15.00;25.70
1021;DHT22;499;42.648;23.270;2023-04-25T12:22:42;15.30;26.10
1021;DHT22;499;42.648;23.270;2023-04-25T12:25:12;15.50;25.20
1021;DHT22;499;42.648;23.270;2023-04-25T12:27:40;15.30;23.00
1021;DHT22;499;42.648;23.270;2023-04-25T12:30:09;15.50;23.10
1021;DHT22;499;42.648;23.270;2023-04-25T12:32:37;15.50;22.30
1021;DHT22;499;42.648;23.270;2023-04-25T12:35:05;15.70;20.40
1021;DHT22;499;42.648;23.270;2023-04-25T12:37:32;15.20;23.70
1021;DHT22;499;42.648;23.270;2023-04-25T12:40:00;14.50;28.70
1021;DHT22;499;42.648;23.270;2023-04-25T12:42:29;13.70;31.10
1021;DHT22;499;42.648;23.270;2023-04-25T12:44:56;13.10;31.40
1021;DHT22;499;42.648;23.270;2023-04-25T12:47:23;13.00;29.10
1021;DHT22;499;42.648;23.270;2023-04-25T12:49:50;12.80;29.00
1021;DHT22;499;42.648;23.270;2023-04-25T12:52:17;12.70;31.00
1021;DHT22;499;42.648;23.270;2023-04-25T12:54:44;12.70;33.30
1021;DHT22;499;42.648;23.270;2023-04-25T12:57:13;12.70;35.40
1021;DHT22;499;42.648;23.270;2023-04-25T12:59:40;12.80;37.70
1021;DHT22;499;42.648;23.270;2023-04-25T13:02:07;12.70;38.10
1021;DHT22;499;42.648;23.270;2023-04-25T13:04:34;12.80;39.00
1021;DHT22;499;42.648;23.270;2023-04-25T13:07:01;12.80;45.10
1021;DHT22;499;42.648;23.270;2023-04-25T13:09:29;12.40;55.60
1021;DHT22;499;42.648;23.270;2023-04-25T13:11:56;12.10;60.70
1021;DHT22;499;42.648;23.270;2023-04-25T13:14:24;11.70;79.40
1021;DHT22;499;42.648;23.270;2023-04-25T13:16:51;11.40;79.90
1021;DHT22;499;42.648;23.270;2023-04-25T13:19:20;11.20;83.60
1021;DHT22;499;42.648;23.270;2023-04-25T13:21:47;10.90;82.00
1021;DHT22;499;42.648;23.270;2023-04-25T13:24:14;10.70;75.80
1021;DHT22;499;42.648;23.270;2023-04-25T13:26:41;10.50;84.90
1021;DHT22;499;42.648;23.270;2023-04-25T13:29:08;10.50;90.90
1021;DHT22;499;42.648;23.270;2023-04-25T13:31:36;10.50;92.90
1021;DHT22;499;42.648;23.270;2023-04-25T13:34:03;10.50;94.90
1021;DHT22;499;42.648;23.270;2023-04-25T13:36:30;10.30;93.80
1021;DHT22;499;42.648;23.270;2023-04-25T13:38:58;10.20;96.30
1021;DHT22;499;42.648;23.270;2023-04-25T13:41:25;10.20;96.80
1021;DHT22;499;42.648;23.270;2023-04-25T13:43:52;10.30;96.80
1021;DHT22;499;42.648;23.270;2023-04-25T13:46:19;10.20;96.90
1021;DHT22;499;42.648;23.270;2023-04-25T13:48:48;10.30;97.50
1021;DHT22;499;42.648;23.270;2023-04-25T13:51:16;10.40;98.80
1021;DHT22;499;42.648;23.270;2023-04-25T13:53:43;10.50;98.80
1021;DHT22;499;42.648;23.270;2023-04-25T13:56:11;10.60;98.80
1021;DHT22;499;42.648;23.270;2023-04-25T13:58:38;10.80;97.10
1021;DHT22;499;42.648;23.270;2023-04-25T14:01:05;11.20;97.60
1021;DHT22;499;42.648;23.270;2023-04-25T14:03:33;11.70;95.60
1021;DHT22;499;42.648;23.270;2023-04-25T14:06:01;12.10;90.60
1021;DHT22;499;42.648;23.270;2023-04-25T14:08:28;12.20;78.80
1021;DHT22;499;42.648;23.270;2023-04-25T14:10:56;12.60;74.20
1021;DHT22;499;42.648;23.270;2023-04-25T14:13:23;13.10;72.80
1021;DHT22;499;42.648;23.270;2023-04-25T14:15:50;13.50;55.80
1021;DHT22;499;42.648;23.270;2023-04-25T14:18:17;13.80;47.40
1021;DHT22;499;42.648;23.270;2023-04-25T14:20:45;13.80;47.00
1021;DHT22;499;42.648;23.270;2023-04-25T14:23:13;13.80;56.20
1021;DHT22;499;42.648;23.270;2023-04-25T14:25:40;13.80;57.50
1021;DHT22;499;42.648;23.270;2023-04-25T14:28:09;13.70;57.10
1021;DHT22;499;42.648;23.270;2023-04-25T14:30:36;13.50;52.50
1021;DHT22;499;42.648;23.270;2023-04-25T14:33:03;13.30;52.60
1021;DHT22;499;42.648;23.270;2023-04-25T14:35:30;13.10;57.40
1021;DHT22;499;42.648;23.270;2023-04-25T14:37:57;13.10;61.50
1021;DHT22;499;42.648;23.270;2023-04-25T14:40:26;13.20;60.20
1021;DHT22;499;42.648;23.270;2023-04-25T14:42:53;13.40;55.20
1021;DHT22;499;42.648;23.270;2023-04-25T14:45:20;13.60;56.40
1021;DHT22;499;42.648;23.270;2023-04-25T14:47:47;13.40;47.90
1021;DHT22;499;42.648;23.270;2023-04-25T14:50:14;13.40;49.30
1021;DHT22;499;42.648;23.270;2023-04-25T14:52:42;13.40;52.60
1021;DHT22;499;42.648;23.270;2023-04-25T14:55:10;13.50;51.60
1021;DHT22;499;42.648;23.270;2023-04-25T14:57:39;13.80;53.00
1021;DHT22;499;42.648;23.270;2023-04-25T15:00:07;14.00;53.40
1021;DHT22;499;42.648;23.270;2023-04-25T15:02:35;14.00;54.70
1021;DHT22;499;42.648;23.270;2023-04-25T15:05:03;14.10;52.00
1021;DHT22;499;42.648;23.270;2023-04-25T15:07:30;14.30;51.20
1021;DHT22;499;42.648;23.270;2023-04-25T15:09:57;14.40;50.90
1021;DHT22;499;42.648;23.270;2023-04-25T15:12:24;14.50;49.90
1021;DHT22;499;42.648;23.270;2023-04-25T15:14:55;14.40;53.50
1021;DHT22;499;42.648;23.270;2023-04-25T15:17:22;14.50;48.10
1021;DHT22;499;42.648;23.270;2023-04-25T15:19:49;14.20;49.60
1021;DHT22;499;42.648;23.270;2023-04-25T15:22:16;14.10;50.50
1021;DHT22;499;42.648;23.270;2023-04-25T15:24:43;13.90;51.30
1021;DHT22;499;42.648;23.270;2023-04-25T15:27:10;13.80;53.00
1021;DHT22;499;42.648;23.270;2023-04-25T15:29:37;13.80;57.50
1021;DHT22;499;42.648;23.270;2023-04-25T15:32:07;13.80;60.60
1021;DHT22;499;42.648;23.270;2023-04-25T15:34:34;13.80;59.00
1021;DHT22;499;42.648;23.270;2023-04-25T15:37:01;13.90;56.60
1021;DHT22;499;42.648;23.270;2023-04-25T15:39:28;13.80;52.80
1021;DHT22;499;42.648;23.270;2023-04-25T15:41:55;13.30;61.70
1021;DHT22;499;42.648;23.270;2023-04-25T15:44:23;13.40;61.80
1021;DHT22;499;42.648;23.270;2023-04-25T15:46:51;13.50;56.60
1021;DHT22;499;42.648;23.270;2023-04-25T15:49:19;13.50;57.20
1021;DHT22;499;42.648;23.270;2023-04-25T15:51:47;13.60;56.10
1021;DHT22;499;42.648;23.270;2023-04-25T15:54:14;13.30;50.40
1021;DHT22;499;42.648;23.270;2023-04-25T15:56:42;13.50;51.40
1021;DHT22;499;42.648;23.270;2023-04-25T15:59:09;13.30;49.80
1021;DHT22;499;42.648;23.270;2023-04-25T16:01:36;13.10;50.00
1021;DHT22;499;42.648;23.270;2023-04-25T16:04:05;13.00;39.10
1021;DHT22;499;42.648;23.270;2023-04-25T16:06:33;13.00;40.90
1021;DHT22;499;42.648;23.270;2023-04-25T16:09:00;12.80;41.70